Time;durP1;ratioP1;P1;durP2;ratioP2;P2;SDS_P1;SDS_P2;PMS_P1;PMS_P2;Temp;Humidity;BMP_temperature;BMP_pressure;BME280_temperature;BME280_humidity;BME280_pressure;Samples;Min_cycle;Max_cycle;Signal;HPM_P1;HPM_P2
2021/07/13 00:01:48;;;;;;;2.10;1.90;;;19.90;99.90;;;;;;5064052;28;20636;-88
2021/07/13 00:04:14;;;;;;;2.27;2.07;;;19.80;99.90;;;;;;5064617;28;21189;-88
2021/07/13 00:06:41;;;;;;;1.80;1.70;;;19.80;99.90;;;;;;5065995;28;20628;-88
2021/07/13 00:09:08;;;;;;;2.17;1.97;;;19.70;99.90;;;;;;5065582;28;20629;-88
2021/07/13 00:11:35;;;;;;;2.03;1.83;;;19.60;99.90;;;;;;5064207;28;20688;-88
2021/07/13 00:14:02;;;;;;;3.20;1.50;;;19.60;99.90;;;;;;5066396;28;20981;-88
2021/07/13 00:16:31;;;;;;;2.03;1.80;;;19.60;99.90;;;;;;5066687;28;20646;-88
2021/07/13 00:18:58;;;;;;;4.10;1.60;;;19.50;99.90;;;;;;5064310;28;21155;-88
2021/07/13 00:21:25;;;;;;;2.00;1.80;;;19.50;99.90;;;;;;5065819;28;20652;-88
2021/07/13 00:23:52;;;;;;;2.63;1.87;;;19.40;99.90;;;;;;5058567;28;20998;-88
2021/07/13 00:26:18;;;;;;;1.80;1.47;;;19.40;99.90;;;;;;5062023;28;21097;-88
2021/07/13 00:28:45;;;;;;;3.67;1.30;;;19.40;99.90;;;;;;5064940;28;20624;-88
2021/07/13 00:31:12;;;;;;;2.90;1.47;;;19.30;99.90;;;;;;5062750;28;20683;-88
2021/07/13 00:33:40;;;;;;;1.70;0.93;;;19.30;99.90;;;;;;5064699;28;20628;-87
2021/07/13 00:36:07;;;;;;;1.50;1.00;;;19.30;99.90;;;;;;5064583;28;20633;-88
2021/07/13 00:38:34;;;;;;;2.77;1.20;;;19.30;99.90;;;;;;5062198;28;20636;-87
2021/07/13 00:41:00;;;;;;;3.27;1.30;;;19.20;99.90;;;;;;5059711;28;20641;-87
2021/07/13 00:43:27;;;;;;;2.23;1.30;;;19.20;99.90;;;;;;5061632;28;20637;-87
2021/07/13 00:45:54;;;;;;;2.23;1.10;;;19.20;99.90;;;;;;5064286;28;20635;-87
2021/07/13 00:48:21;;;;;;;2.53;1.07;;;19.30;99.90;;;;;;5064712;28;20984;-87
2021/07/13 00:50:50;;;;;;;1.80;1.00;;;19.30;99.90;;;;;;5061114;28;20704;-87
2021/07/13 00:53:16;;;;;;;2.20;1.07;;;19.20;99.90;;;;;;5064173;28;20637;-87
2021/07/13 00:55:43;;;;;;;2.90;1.00;;;19.10;99.90;;;;;;5063226;28;20624;-88
2021/07/13 00:58:10;;;;;;;5.20;1.57;;;19.20;99.90;;;;;;5063212;28;20636;-87
2021/07/13 01:00:36;;;;;;;2.10;1.00;;;19.20;99.90;;;;;;5062962;28;22551;-87
2021/07/13 01:03:06;;;;;;;3.10;1.10;;;19.10;99.90;;;;;;5059845;28;20621;-87
2021/07/13 01:05:34;;;;;;;3.40;1.50;;;19.10;99.90;;;;;;5058349;28;21213;-88
2021/07/13 01:08:19;;;;;;;1.57;1.00;;;19.00;99.90;;;;;;5060966;28;20629;-87
2021/07/13 01:10:53;;;;;;;1.90;1.10;;;19.10;99.90;;;;;;5061241;28;21242;-87
2021/07/13 01:13:32;;;;;;;3.70;1.13;;;19.10;99.90;;;;;;5060738;28;20649;-87
2021/07/13 01:16:05;;;;;;;1.90;1.40;;;19.00;99.90;;;;;;5065243;28;20589;-87
2021/07/13 01:18:37;;;;;;;1.90;1.73;;;19.00;99.90;;;;;;5064451;28;20621;-87
2021/07/13 01:21:37;;;;;;;2.83;2.10;;;19.00;99.90;;;;;;5064422;28;20658;-87
2021/07/13 01:24:30;;;;;;;2.70;1.83;;;19.00;99.90;;;;;;5060402;28;20639;-88
2021/07/13 01:27:10;;;;;;;3.47;1.83;;;18.90;99.90;;;;;;5059063;28;20614;-88
2021/07/13 01:29:43;;;;;;;2.70;1.73;;;18.90;99.90;;;;;;5063656;28;20660;-88
2021/07/13 01:32:15;;;;;;;2.27;2.00;;;19.00;99.90;;;;;;5065832;28;20683;-88
2021/07/13 01:34:47;;;;;;;2.60;1.83;;;19.00;99.90;;;;;;5062799;28;20734;-87
2021/07/13 01:37:15;;;;;;;2.30;1.57;;;19.00;99.90;;;;;;5063817;28;21101;-88
2021/07/13 01:39:42;;;;;;;4.00;1.90;;;19.00;99.90;;;;;;5063670;28;20706;-88
2021/07/13 01:42:11;;;;;;;3.53;1.80;;;19.00;99.90;;;;;;5067887;28;20730;-88
2021/07/13 01:44:41;;;;;;;2.27;2.07;;;19.10;99.90;;;;;;5068664;28;21150;-88
2021/07/13 01:47:10;;;;;;;1.97;1.70;;;19.00;99.90;;;;;;5050445;28;20649;-88
2021/07/13 01:49:38;;;;;;;3.73;2.10;;;19.00;99.90;;;;;;5049080;28;20656;-88
2021/07/13 01:52:07;;;;;;;3.83;2.33;;;19.00;99.90;;;;;;5064022;28;20671;-88
2021/07/13 01:54:35;;;;;;;3.17;2.10;;;19.00;99.90;;;;;;5063907;28;20612;-87
2021/07/13 01:57:03;;;;;;;3.40;2.90;;;18.90;99.90;;;;;;5059267;28;21017;-87
2021/07/13 01:59:31;;;;;;;4.60;2.57;;;18.90;99.90;;;;;;5062340;28;20631;-87
2021/07/13 02:02:02;;;;;;;3.47;2.90;;;18.80;99.90;;;;;;5066502;28;20627;-88
2021/07/13 02:04:30;;;;;;;5.07;2.57;;;18.80;99.90;;;;;;5068682;28;20607;-88
2021/07/13 02:06:59;;;;;;;6.80;2.70;;;18.80;99.90;;;;;;5068116;28;20625;-88
2021/07/13 02:09:26;;;;;;;3.07;2.77;;;18.80;99.90;;;;;;5067714;28;20660;-88
2021/07/13 02:11:56;;;;;;;2.77;2.40;;;18.80;99.90;;;;;;5068995;28;20680;-89
2021/07/13 02:14:23;;;;;;;2.83;1.80;;;18.80;99.90;;;;;;5067188;28;20636;-89
2021/07/13 02:16:51;;;;;;;2.37;1.80;;;18.70;99.90;;;;;;5063409;28;20636;-89
2021/07/13 02:19:21;;;;;;;2.47;2.17;;;18.50;99.90;;;;;;5045325;28;20694;-89
2021/07/13 02:21:48;;;;;;;5.97;2.20;;;18.50;99.90;;;;;;5069002;28;20625;-89
2021/07/13 02:24:15;;;;;;;3.10;1.67;;;18.40;99.90;;;;;;5064421;28;20660;-88
2021/07/13 02:26:44;;;;;;;3.57;2.20;;;18.40;99.90;;;;;;5068862;28;20991;-88
2021/07/13 02:29:17;;;;;;;2.87;1.83;;;18.40;99.90;;;;;;5066456;28;20644;-88
2021/07/13 02:31:48;;;;;;;2.73;1.90;;;18.30;99.90;;;;;;5060786;28;20621;-88
2021/07/13 02:34:17;;;;;;;3.53;1.43;;;18.30;99.90;;;;;;5068194;28;20621;-88
2021/07/13 02:36:49;;;;;;;3.70;2.33;;;18.30;99.90;;;;;;5068888;28;20633;-88
2021/07/13 02:39:16;;;;;;;3.27;2.00;;;18.30;99.90;;;;;;5062220;28;20730;-87
2021/07/13 02:41:45;;;;;;;3.60;2.27;;;18.20;99.90;;;;;;5064163;28;21176;-87
2021/07/13 02:44:13;;;;;;;3.17;1.80;;;18.20;99.90;;;;;;5067349;28;20632;-87
2021/07/13 02:46:43;;;;;;;2.57;1.50;;;18.10;99.90;;;;;;5066421;28;21082;-88
2021/07/13 02:49:14;;;;;;;3.00;1.83;;;18.10;99.90;;;;;;5064256;28;20666;-89
2021/07/13 02:51:42;;;;;;;4.17;2.93;;;18.10;99.90;;;;;;5064402;28;21280;-88
2021/07/13 02:54:12;;;;;;;2.33;1.50;;;18.10;99.90;;;;;;5064097;28;20636;-86
2021/07/13 02:56:41;;;;;;;3.43;1.67;;;18.00;99.90;;;;;;5066355;28;20633;-87
2021/07/13 02:59:09;;;;;;;1.30;1.13;;;18.00;99.90;;;;;;5064777;28;20625;-87
2021/07/13 03:01:37;;;;;;;1.50;1.13;;;17.90;99.90;;;;;;5066741;28;20651;-87
2021/07/13 03:04:05;;;;;;;1.07;0.97;;;17.80;99.90;;;;;;5067537;28;20617;-87
2021/07/13 03:06:33;;;;;;;3.33;1.23;;;17.70;99.90;;;;;;5066729;28;20977;-88
2021/07/13 03:09:00;;;;;;;4.83;1.97;;;17.80;99.90;;;;;;5063928;28;20628;-88
2021/07/13 03:11:28;;;;;;;1.70;1.40;;;17.70;99.90;;;;;;5065895;28;20688;-87
2021/07/13 03:13:57;;;;;;;1.80;1.20;;;17.80;99.90;;;;;;5062236;28;20639;-88
2021/07/13 03:16:26;;;;;;;3.43;1.53;;;17.80;99.90;;;;;;5064883;28;21167;-88
2021/07/13 03:18:53;;;;;;;4.90;1.70;;;17.70;99.90;;;;;;5061097;28;21188;-87
2021/07/13 03:21:25;;;;;;;1.60;1.50;;;17.70;99.90;;;;;;5063546;28;21007;-87
2021/07/13 03:23:53;;;;;;;2.33;1.63;;;17.70;99.90;;;;;;5064499;28;20666;-87
2021/07/13 03:26:20;;;;;;;3.47;1.73;;;17.60;99.90;;;;;;5066750;28;20629;-87
2021/07/13 03:28:49;;;;;;;3.10;2.50;;;17.70;99.90;;;;;;5058344;28;20636;-87
2021/07/13 03:31:15;;;;;;;2.23;2.00;;;17.70;99.90;;;;;;5062194;28;20684;-87
2021/07/13 03:33:42;;;;;;;3.00;2.70;;;17.70;99.90;;;;;;5058529;28;20626;-87
2021/07/13 03:36:09;;;;;;;2.40;2.20;;;17.80;99.90;;;;;;5067397;28;20791;-89
2021/07/13 03:38:36;;;;;;;2.53;2.33;;;17.80;99.90;;;;;;5066172;28;20644;-87
2021/07/13 03:41:03;;;;;;;2.83;2.63;;;17.80;99.90;;;;;;5066988;28;20652;-87
2021/07/13 03:43:30;;;;;;;3.03;1.93;;;17.70;99.90;;;;;;5067249;28;20637;-87
2021/07/13 03:45:58;;;;;;;2.23;2.03;;;17.70;99.90;;;;;;5066115;28;21022;-87
2021/07/13 03:48:25;;;;;;;2.10;1.90;;;17.60;99.90;;;;;;5065133;28;20644;-87
2021/07/13 03:50:52;;;;;;;2.97;1.97;;;17.60;99.90;;;;;;5060809;28;21253;-87
2021/07/13 03:53:19;;;;;;;2.53;1.80;;;17.60;99.90;;;;;;5062291;28;20637;-87
2021/07/13 03:55:46;;;;;;;3.63;1.80;;;17.60;99.90;;;;;;5064505;28;20696;-88
2021/07/13 03:58:13;;;;;;;3.60;1.73;;;17.60;99.90;;;;;;5064057;28;20923;-87
2021/07/13 04:00:40;;;;;;;1.70;1.60;;;17.60;99.90;;;;;;5064356;28;20663;-87
2021/07/13 04:03:08;;;;;;;2.40;2.20;;;17.60;99.90;;;;;;5060954;28;21217;-90
2021/07/13 04:05:35;;;;;;;2.50;1.60;;;17.50;99.90;;;;;;5066721;28;20644;-91
2021/07/13 04:08:02;;;;;;;3.27;1.83;;;17.50;99.90;;;;;;5064410;28;20617;-91
2021/07/13 04:10:29;;;;;;;3.80;2.37;;;17.50;99.90;;;;;;5066348;28;20714;-91
2021/07/13 04:12:56;;;;;;;2.60;2.40;;;17.50;99.90;;;;;;5065736;28;21186;-91
2021/07/13 04:15:23;;;;;;;3.10;2.30;;;17.50;99.90;;;;;;5064846;28;21006;-91
2021/07/13 04:17:50;;;;;;;3.37;2.17;;;17.50;99.90;;;;;;5062227;28;20637;-93
2021/07/13 04:20:18;;;;;;;5.83;3.30;;;17.50;99.90;;;;;;5062431;28;20668;-93
2021/07/13 04:22:45;;;;;;;4.07;3.67;;;17.50;99.90;;;;;;5067399;28;20625;-92
2021/07/13 04:25:14;;;;;;;3.13;2.47;;;17.50;99.90;;;;;;5067029;28;20641;-92
2021/07/13 04:27:42;;;;;;;6.30;2.77;;;17.50;99.90;;;;;;5068507;28;20625;-93
2021/07/13 04:30:10;;;;;;;3.27;2.70;;;17.60;99.90;;;;;;5069713;28;20993;-93
2021/07/13 04:32:37;;;;;;;3.63;3.00;;;17.70;99.90;;;;;;5063463;28;20673;-92
2021/07/13 04:35:05;;;;;;;4.43;2.13;;;17.60;99.90;;;;;;5068220;28;20632;-93
2021/07/13 04:37:35;;;;;;;2.40;2.20;;;17.70;99.90;;;;;;5068670;28;20716;-94
2021/07/13 04:40:04;;;;;;;4.10;2.30;;;17.70;99.90;;;;;;5060974;28;20657;-92
2021/07/13 04:42:31;;;;;;;2.10;1.90;;;17.70;99.90;;;;;;5041166;28;20697;-93
2021/07/13 04:45:05;;;;;;;2.27;1.67;;;17.70;99.90;;;;;;5062989;28;20636;-93
2021/07/13 04:47:32;;;;;;;2.57;2.37;;;17.80;99.90;;;;;;5045001;28;20632;-93
2021/07/13 04:49:59;;;;;;;1.50;1.40;;;17.80;99.90;;;;;;5066788;28;20648;-92
2021/07/13 04:52:26;;;;;;;1.23;1.13;;;17.80;99.90;;;;;;5068823;28;21537;-93
2021/07/13 04:54:54;;;;;;;2.67;1.70;;;17.90;99.90;;;;;;5066085;28;20617;-93
2021/07/13 04:57:21;;;;;;;2.10;1.50;;;17.90;99.90;;;;;;5067179;28;20617;-92
2021/07/13 04:59:48;;;;;;;3.10;1.63;;;18.00;99.90;;;;;;5064808;28;20649;-92
2021/07/13 05:02:14;;;;;;;5.00;1.63;;;18.00;99.90;;;;;;5067096;28;20636;-92
2021/07/13 05:04:41;;;;;;;1.93;1.50;;;18.00;99.90;;;;;;5069126;28;20621;-92
2021/07/13 05:07:08;;;;;;;2.10;1.20;;;18.00;99.90;;;;;;5065801;28;20636;-92
2021/07/13 05:09:35;;;;;;;1.97;1.73;;;18.10;99.90;;;;;;5063429;28;20649;-93
2021/07/13 05:12:04;;;;;;;1.90;1.67;;;18.10;99.90;;;;;;5065378;28;20665;-93
2021/07/13 05:14:31;;;;;;;4.40;1.50;;;18.20;99.90;;;;;;5060840;28;21569;-90
2021/07/13 05:16:58;;;;;;;4.17;1.70;;;18.30;99.90;;;;;;5060568;28;21340;-91
2021/07/13 05:19:25;;;;;;;2.40;1.73;;;18.30;99.90;;;;;;5062719;28;20640;-91
2021/07/13 05:21:56;;;;;;;2.87;1.60;;;18.50;99.90;;;;;;5068311;28;20664;-92
2021/07/13 05:24:25;;;;;;;2.03;1.20;;;18.50;99.90;;;;;;5067299;28;20649;-92
2021/07/13 05:26:53;;;;;;;1.37;1.27;;;18.60;99.90;;;;;;5044372;28;21023;-91
2021/07/13 05:29:21;;;;;;;1.63;1.30;;;18.60;99.90;;;;;;5064292;28;20621;-91
2021/07/13 05:31:50;;;;;;;1.60;1.13;;;18.70;99.90;;;;;;5069206;28;20664;-92
2021/07/13 05:34:17;;;;;;;1.53;1.27;;;18.70;99.90;;;;;;5062945;28;20630;-92
2021/07/13 05:36:44;;;;;;;2.87;1.50;;;18.70;99.90;;;;;;5060991;28;21481;-92
2021/07/13 05:39:11;;;;;;;1.80;1.50;;;18.80;99.90;;;;;;5059788;28;20632;-92
2021/07/13 05:41:38;;;;;;;2.20;1.70;;;19.00;99.90;;;;;;5065566;28;20629;-94
2021/07/13 05:44:07;;;;;;;5.20;1.33;;;18.90;99.90;;;;;;5064077;28;20636;-92
2021/07/13 05:46:36;;;;;;;1.70;1.33;;;18.90;99.90;;;;;;5053751;28;21241;-91
2021/07/13 05:49:03;;;;;;;2.63;1.63;;;19.00;99.90;;;;;;5060803;28;20629;-92
2021/07/13 05:51:30;;;;;;;1.57;1.17;;;19.00;99.90;;;;;;5041231;28;20765;-92
2021/07/13 05:53:57;;;;;;;3.13;1.77;;;19.00;99.90;;;;;;5063154;28;20636;-91
2021/07/13 05:56:25;;;;;;;1.40;1.30;;;19.00;99.90;;;;;;5062303;28;21049;-92
2021/07/13 05:58:52;;;;;;;3.07;1.50;;;18.90;99.90;;;;;;5055512;28;20768;-91
2021/07/13 06:01:19;;;;;;;1.97;1.80;;;18.80;99.90;;;;;;5058425;28;20644;-92
2021/07/13 06:03:47;;;;;;;1.40;1.30;;;18.80;99.90;;;;;;5066802;28;20624;-93
2021/07/13 06:06:15;;;;;;;3.90;2.00;;;18.80;99.90;;;;;;5049440;28;21187;-93
2021/07/13 06:08:42;;;;;;;3.90;2.00;;;18.90;99.90;;;;;;5065367;28;20729;-93
2021/07/13 06:11:09;;;;;;;2.87;1.80;;;18.90;99.90;;;;;;5066111;28;20698;-92
2021/07/13 06:13:36;;;;;;;3.33;1.77;;;18.90;99.90;;;;;;5066421;28;20631;-94
2021/07/13 06:16:04;;;;;;;3.20;1.90;;;19.00;99.90;;;;;;5067819;28;20636;-95
2021/07/13 06:18:31;;;;;;;6.60;1.80;;;18.90;99.90;;;;;;5067123;28;20664;-95
2021/07/13 06:20:59;;;;;;;4.53;2.43;;;18.80;99.90;;;;;;5069631;28;20638;-94
2021/07/13 06:23:26;;;;;;;3.40;1.63;;;18.80;99.90;;;;;;5072924;28;20632;-95
2021/07/13 06:25:56;;;;;;;2.60;2.03;;;18.80;99.90;;;;;;5069617;28;20639;-95
2021/07/13 06:28:23;;;;;;;2.20;1.57;;;18.80;99.90;;;;;;5061360;28;20675;-95
2021/07/13 06:30:50;;;;;;;2.50;2.30;;;18.70;99.90;;;;;;5047541;28;20714;-94
2021/07/13 06:33:17;;;;;;;3.10;2.50;;;18.80;99.90;;;;;;5080408;28;20666;-95
2021/07/13 06:36:06;;;;;;;2.43;2.23;;;18.80;99.90;;;;;;5090301;28;20704;-96
2021/07/13 06:39:04;;;;;;;2.97;2.67;;;18.80;99.90;;;;;;5098348;28;20716;-96
2021/07/13 06:41:34;;;;;;;2.13;1.93;;;18.90;99.90;;;;;;5073740;28;21279;-95
2021/07/13 06:44:01;;;;;;;3.40;2.97;;;18.80;99.90;;;;;;5067987;28;20651;-94
2021/07/13 06:46:28;;;;;;;2.73;2.50;;;19.00;99.90;;;;;;5071402;28;20646;-94
2021/07/13 06:49:06;;;;;;;2.97;2.77;;;19.00;99.90;;;;;;5075894;28;20628;-95
2021/07/13 06:51:38;;;;;;;2.80;2.60;;;19.20;99.90;;;;;;5054869;28;20625;-94
2021/07/13 06:54:05;;;;;;;3.80;3.40;;;19.30;99.90;;;;;;5069379;28;20681;-94
2021/07/13 06:56:32;;;;;;;2.90;2.70;;;19.30;99.90;;;;;;5071464;28;20630;-95
2021/07/13 06:59:01;;;;;;;4.13;2.80;;;19.30;99.90;;;;;;5072668;28;20716;-94
2021/07/13 07:01:28;;;;;;;3.60;2.70;;;19.30;99.90;;;;;;5072642;28;20636;-94
2021/07/13 07:03:55;;;;;;;13.40;8.07;;;19.30;99.90;;;;;;5071769;28;21224;-94
2021/07/13 07:06:22;;;;;;;15.33;10.43;;;19.30;99.90;;;;;;5074332;28;20621;-94
2021/07/13 07:08:50;;;;;;;8.30;4.37;;;19.30;99.90;;;;;;5068935;28;20702;-93
2021/07/13 07:11:18;;;;;;;11.33;4.53;;;19.30;99.90;;;;;;5070530;28;20631;-92
2021/07/13 07:13:48;;;;;;;8.00;3.30;;;19.20;99.90;;;;;;5073121;28;20683;-96
2021/07/13 07:16:15;;;;;;;4.67;3.93;;;19.10;99.90;;;;;;5073120;28;20700;-96
2021/07/13 07:18:42;;;;;;;5.87;4.03;;;19.00;99.90;;;;;;5072556;28;20624;-96
2021/07/13 07:21:11;;;;;;;5.23;4.00;;;18.90;99.90;;;;;;5071268;28;20664;-94
2021/07/13 07:23:40;;;;;;;6.23;4.40;;;18.90;99.90;;;;;;5072884;28;21069;-95
2021/07/13 07:26:09;;;;;;;6.53;3.80;;;18.90;99.90;;;;;;5067870;28;21222;-94
2021/07/13 07:28:36;;;;;;;6.47;5.23;;;18.90;99.90;;;;;;5073045;28;20685;-96
2021/07/13 07:31:05;;;;;;;6.40;5.00;;;18.90;99.90;;;;;;5073720;28;20697;-95
2021/07/13 07:33:32;;;;;;;6.90;4.70;;;18.80;99.90;;;;;;5070715;28;20664;-95
2021/07/13 07:35:59;;;;;;;7.70;5.57;;;18.70;99.90;;;;;;5070577;28;20741;-95
2021/07/13 07:38:26;;;;;;;5.93;5.43;;;18.70;99.90;;;;;;5068367;28;20632;-95
2021/07/13 07:40:55;;;;;;;4.83;4.33;;;18.70;99.90;;;;;;5068598;28;20672;-95
2021/07/13 07:43:24;;;;;;;5.90;5.30;;;18.70;99.90;;;;;;5069497;28;20617;-94
2021/07/13 07:45:51;;;;;;;4.57;4.17;;;18.70;99.90;;;;;;5067859;28;20629;-95
2021/07/13 07:48:17;;;;;;;6.20;4.50;;;18.80;99.90;;;;;;5052016;28;20682;-94
2021/07/13 07:50:44;;;;;;;4.90;4.50;;;18.70;99.90;;;;;;5067730;28;20644;-95
2021/07/13 07:53:11;;;;;;;5.23;4.80;;;18.70;99.90;;;;;;5071259;28;20649;-95
2021/07/13 07:55:38;;;;;;;6.17;5.53;;;18.70;99.90;;;;;;5070766;28;20691;-95
2021/07/13 07:58:05;;;;;;;4.30;3.90;;;18.70;99.90;;;;;;5069801;28;20698;-95
2021/07/13 08:00:34;;;;;;;5.30;4.70;;;18.60;99.90;;;;;;5069759;28;20633;-94
2021/07/13 08:03:00;;;;;;;5.77;5.37;;;18.60;99.90;;;;;;5071431;28;20639;-94
2021/07/13 08:05:30;;;;;;;5.20;4.70;;;18.70;99.90;;;;;;5069060;28;20791;-95
2021/07/13 08:07:56;;;;;;;7.63;5.80;;;18.80;99.90;;;;;;5067366;28;20735;-96
2021/07/13 08:10:24;;;;;;;7.40;5.70;;;18.80;99.90;;;;;;5069189;28;20633;-95
2021/07/13 08:12:51;;;;;;;4.40;4.10;;;19.00;99.90;;;;;;5070502;28;20691;-95
2021/07/13 08:15:18;;;;;;;5.00;4.60;;;19.10;99.90;;;;;;5069509;28;20676;-95
2021/07/13 08:17:49;;;;;;;4.20;3.90;;;19.20;99.90;;;;;;5069444;28;20629;-95
2021/07/13 08:20:16;;;;;;;6.17;3.30;;;19.20;99.90;;;;;;5069040;28;21123;-95
2021/07/13 08:22:45;;;;;;;4.70;3.07;;;19.20;99.90;;;;;;5071177;28;20655;-94
2021/07/13 08:25:15;;;;;;;3.53;3.23;;;19.30;99.90;;;;;;5078824;28;20775;-95
2021/07/13 08:27:42;;;;;;;4.00;3.50;;;19.30;99.90;;;;;;5071353;28;21263;-95
2021/07/13 08:30:10;;;;;;;2.93;2.47;;;19.20;99.90;;;;;;5069529;28;20632;-95
2021/07/13 08:32:37;;;;;;;3.50;2.27;;;19.10;99.90;;;;;;5067214;28;20657;-95
2021/07/13 08:35:07;;;;;;;4.50;1.87;;;19.10;99.90;;;;;;5068047;28;20759;-95
2021/07/13 08:37:35;;;;;;;3.03;2.33;;;19.10;99.90;;;;;;5070031;28;20668;-96
2021/07/13 08:40:04;;;;;;;2.37;1.90;;;19.00;99.90;;;;;;5069734;28;20702;-96
2021/07/13 08:42:35;;;;;;;2.20;1.80;;;19.20;99.90;;;;;;5070303;28;20641;-96
2021/07/13 08:45:02;;;;;;;3.87;3.33;;;19.30;99.90;;;;;;5068534;28;20649;-94
2021/07/13 08:47:29;;;;;;;2.27;2.17;;;19.30;99.90;;;;;;5067537;28;20640;-94
2021/07/13 08:49:57;;;;;;;2.43;2.10;;;19.30;99.90;;;;;;5065218;28;20725;-95
2021/07/13 08:52:26;;;;;;;3.10;2.37;;;19.40;99.90;;;;;;5065264;28;20660;-95
2021/07/13 08:54:53;;;;;;;5.47;2.47;;;19.40;99.90;;;;;;5067762;28;20659;-96
2021/07/13 08:57:20;;;;;;;3.47;3.00;;;19.40;99.90;;;;;;5067038;28;20663;-95
2021/07/13 08:59:47;;;;;;;2.83;2.60;;;19.30;99.90;;;;;;5066129;28;21079;-95
2021/07/13 09:02:13;;;;;;;6.47;3.70;;;19.30;99.90;;;;;;5068630;28;20644;-96
2021/07/13 09:04:41;;;;;;;3.70;2.83;;;19.30;99.90;;;;;;5067112;28;20657;-95
2021/07/13 09:07:09;;;;;;;5.13;3.17;;;19.40;99.90;;;;;;5064959;28;20637;-95
2021/07/13 09:09:38;;;;;;;6.80;3.10;;;19.30;99.90;;;;;;5067381;28;20629;-96
2021/07/13 09:12:23;;;;;;;3.43;3.13;;;19.40;99.90;;;;;;5066770;28;20727;-96
2021/07/13 09:14:58;;;;;;;4.00;3.50;;;19.50;99.90;;;;;;5062427;28;20665;-95
2021/07/13 09:17:43;;;;;;;3.93;3.17;;;19.50;99.90;;;;;;5066627;28;20887;-95
2021/07/13 09:20:21;;;;;;;3.77;3.10;;;19.60;99.90;;;;;;5063291;28;20653;-96
2021/07/13 09:22:58;;;;;;;7.43;4.10;;;19.50;99.90;;;;;;5078471;28;20683;-96
2021/07/13 09:25:31;;;;;;;4.90;4.33;;;19.40;99.90;;;;;;5067940;28;20668;-96
2021/07/13 09:28:06;;;;;;;4.00;3.60;;;19.50;99.90;;;;;;5066673;28;20577;-96
2021/07/13 09:30:33;;;;;;;3.40;3.10;;;19.40;99.90;;;;;;5157408;22;20779;-96
2021/07/13 09:33:16;;;;;;;3.73;2.97;;;19.30;99.90;;;;;;5066216;28;21316;-96
2021/07/13 09:35:58;;;;;;;3.70;2.13;;;19.10;99.90;;;;;;5065409;28;20724;-96
2021/07/13 09:38:26;;;;;;;3.77;1.20;;;19.10;99.90;;;;;;5067746;28;20621;-96
2021/07/13 09:43:48;;;;;;;1.10;0.97;;;18.60;99.90;;;;;;5139532;23;20672;-95
2021/07/13 09:46:23;;;;;;;2.30;0.83;;;18.30;99.90;;;;;;4988340;28;20629;-96
2021/07/13 09:51:45;;;;;;;0.60;0.50;;;17.90;99.90;;;;;;5167724;23;20690;-96
2021/07/13 10:01:52;;;;;;;2.53;0.70;;;17.50;99.90;;;;;;4998045;28;21493;-96
2021/07/13 10:04:21;;;;;;;1.77;0.70;;;17.60;99.90;;;;;;5004926;28;20632;-96
2021/07/13 11:51:08;;;;;;;0.73;0.43;;;17.10;99.90;;;;;;5026074;28;20673;-96
2021/07/13 11:53:37;;;;;;;1.10;0.50;;;17.10;99.90;;;;;;5025337;28;20687;-96
2021/07/13 11:56:05;;;;;;;4.33;0.67;;;17.30;99.90;;;;;;5019169;28;20664;-94
2021/07/13 11:58:33;;;;;;;1.33;0.60;;;17.30;99.90;;;;;;5008510;28;20667;-95
2021/07/13 12:01:21;;;;;;;1.20;0.47;;;17.50;99.90;;;;;;5009384;28;20662;-96
2021/07/13 12:03:49;;;;;;;0.93;0.50;;;17.40;99.90;;;;;;5010503;28;20655;-96
2021/07/13 12:06:21;;;;;;;0.60;0.43;;;17.40;99.90;;;;;;5010013;28;20632;-95
2021/07/13 12:08:58;;;;;;;1.43;0.50;;;17.50;99.90;;;;;;5009299;28;20667;-94
2021/07/13 12:11:28;;;;;;;1.23;0.40;;;17.60;99.90;;;;;;5020564;28;20635;-96
2021/07/13 12:13:59;;;;;;;0.83;0.50;;;17.60;99.90;;;;;;5018908;28;20691;-96
2021/07/13 12:16:29;;;;;;;0.53;0.30;;;17.60;99.90;;;;;;5008783;28;20722;-96
2021/07/13 12:18:59;;;;;;;1.60;0.40;;;17.70;99.90;;;;;;5009849;28;20651;-95
2021/07/13 12:21:28;;;;;;;1.63;1.10;;;17.90;99.90;;;;;;5009837;28;20642;-96
2021/07/13 12:23:57;;;;;;;1.40;0.70;;;18.10;99.90;;;;;;5010814;28;20651;-96
2021/07/13 12:26:28;;;;;;;1.23;0.47;;;18.20;99.90;;;;;;5010305;28;20636;-96
2021/07/13 12:29:07;;;;;;;0.83;0.50;;;18.10;99.90;;;;;;5012363;28;20755;-96
2021/07/13 12:31:36;;;;;;;4.63;0.50;;;18.20;99.90;;;;;;5007495;28;20632;-94
2021/07/13 12:34:05;;;;;;;0.50;0.30;;;18.40;99.90;;;;;;5006978;28;20675;-95
2021/07/13 12:36:35;;;;;;;1.83;0.67;;;18.50;99.90;;;;;;5007907;28;20713;-95
2021/07/13 12:39:18;;;;;;;1.37;0.47;;;18.60;99.90;;;;;;4998935;28;20674;-96
2021/07/13 12:41:47;;;;;;;0.80;0.57;;;18.60;99.90;;;;;;5001685;28;20640;-96
2021/07/13 12:44:27;;;;;;;1.73;0.50;;;18.50;99.90;;;;;;5010101;28;21003;-95
2021/07/13 12:46:54;;;;;;;0.60;0.50;;;18.50;99.90;;;;;;5006070;28;20746;-96
2021/07/13 12:49:29;;;;;;;1.13;0.40;;;18.50;99.90;;;;;;5008110;28;20655;-95
2021/07/13 12:52:07;;;;;;;0.90;0.60;;;18.40;99.90;;;;;;5007868;28;20637;-95
2021/07/13 12:54:34;;;;;;;0.63;0.40;;;18.50;99.90;;;;;;5004899;28;20651;-96
2021/07/13 12:57:01;;;;;;;1.87;0.80;;;18.50;99.90;;;;;;5010279;28;20642;-96
2021/07/13 12:59:29;;;;;;;3.43;0.50;;;18.60;99.90;;;;;;5014457;28;20683;-95
2021/07/13 13:01:58;;;;;;;1.17;0.40;;;18.60;99.90;;;;;;5009525;28;20638;-96
2021/07/13 13:04:25;;;;;;;0.60;0.47;;;18.70;99.90;;;;;;5015577;28;20678;-96
2021/07/13 13:07:00;;;;;;;0.73;0.43;;;18.70;99.90;;;;;;5029590;28;20642;-96
2021/07/13 13:09:36;;;;;;;1.03;0.60;;;18.80;99.90;;;;;;5026258;28;20697;-95
2021/07/13 13:12:03;;;;;;;1.43;0.80;;;18.90;99.90;;;;;;5013627;28;20630;-96
2021/07/13 13:14:33;;;;;;;2.17;0.60;;;18.80;99.90;;;;;;5006883;28;20627;-96
2021/07/13 13:16:59;;;;;;;0.50;0.40;;;18.90;99.90;;;;;;5006558;28;20632;-96
2021/07/13 13:19:29;;;;;;;0.53;0.53;;;18.90;99.90;;;;;;5005649;28;20667;-96
2021/07/13 13:21:58;;;;;;;1.93;0.67;;;18.90;99.90;;;;;;5007570;28;20643;-96
2021/07/13 13:24:26;;;;;;;1.60;0.73;;;18.90;99.90;;;;;;5008048;28;20636;-96
2021/07/13 13:26:53;;;;;;;1.53;0.77;;;18.90;99.90;;;;;;5005232;28;21255;-96
2021/07/13 13:29:20;;;;;;;1.60;0.70;;;18.80;99.90;;;;;;5011987;28;20677;-96
2021/07/13 13:31:48;;;;;;;0.60;0.60;;;18.90;99.90;;;;;;5014936;28;20641;-96
2021/07/13 13:34:16;;;;;;;1.63;1.10;;;18.90;99.90;;;;;;5013189;28;20659;-96
2021/07/13 13:36:50;;;;;;;1.37;0.67;;;18.90;99.90;;;;;;5008361;28;20701;-96
2021/07/13 13:39:18;;;;;;;3.50;1.23;;;19.00;99.90;;;;;;5009891;28;21218;-96
2021/07/13 13:41:48;;;;;;;2.07;0.80;;;18.90;99.90;;;;;;5008906;28;20635;-96
2021/07/13 13:44:16;;;;;;;1.83;0.60;;;19.20;99.90;;;;;;5012440;28;20631;-96
2021/07/13 13:46:43;;;;;;;0.70;0.60;;;19.20;99.90;;;;;;5008973;28;21188;-96
2021/07/13 13:49:10;;;;;;;1.27;1.17;;;19.40;99.90;;;;;;5008131;28;20667;-96
2021/07/13 13:51:37;;;;;;;3.03;0.97;;;19.50;99.90;;;;;;5010923;28;20725;-94
2021/07/13 13:54:04;;;;;;;0.90;0.43;;;19.50;99.90;;;;;;5010172;28;20726;-94
2021/07/13 13:56:33;;;;;;;0.70;0.50;;;19.60;99.90;;;;;;5010981;28;20652;-94
2021/07/13 13:59:01;;;;;;;0.70;0.67;;;19.50;99.90;;;;;;5010646;28;20766;-95
2021/07/13 14:01:28;;;;;;;1.43;0.70;;;19.50;99.90;;;;;;5010795;28;21163;-94
2021/07/13 14:03:56;;;;;;;1.00;0.57;;;19.50;99.90;;;;;;5010594;28;20616;-94
2021/07/13 14:06:23;;;;;;;0.97;0.70;;;19.40;99.90;;;;;;5009647;28;20636;-94
2021/07/13 14:08:51;;;;;;;1.10;0.80;;;19.50;99.90;;;;;;5007458;28;20659;-93
2021/07/13 14:11:19;;;;;;;0.70;0.70;;;19.30;99.90;;;;;;5009579;28;20666;-94
2021/07/13 14:13:47;;;;;;;2.73;0.90;;;19.70;99.90;;;;;;5003316;28;20734;-94
2021/07/13 14:16:36;;;;;;;3.27;0.97;;;20.10;99.90;;;;;;5028117;28;21283;-95
2021/07/13 14:19:03;;;;;;;0.70;0.60;;;20.40;99.90;;;;;;5009467;28;20651;-96
2021/07/13 14:21:30;;;;;;;0.57;0.57;;;20.30;99.90;;;;;;5010009;28;20635;-95
2021/07/13 14:23:57;;;;;;;2.07;1.10;;;20.50;99.90;;;;;;5011806;28;20627;-96
2021/07/13 14:26:24;;;;;;;1.00;0.70;;;20.40;99.90;;;;;;5010214;28;20632;-95
2021/07/13 14:28:51;;;;;;;0.80;0.77;;;20.20;99.90;;;;;;5026626;28;20658;-95
2021/07/13 14:31:22;;;;;;;1.00;0.90;;;20.40;99.90;;;;;;5014471;28;20650;-96
2021/07/13 14:33:52;;;;;;;0.70;0.67;;;20.00;99.90;;;;;;5007973;28;20686;-96
2021/07/13 14:36:20;;;;;;;1.07;0.80;;;20.00;99.90;;;;;;5013462;28;20635;-96
2021/07/13 14:38:47;;;;;;;1.43;0.60;;;20.10;99.90;;;;;;5009263;28;20689;-96
2021/07/13 14:41:15;;;;;;;0.63;0.60;;;19.90;99.90;;;;;;5013386;28;20752;-96
2021/07/13 14:43:42;;;;;;;0.67;0.40;;;19.70;99.90;;;;;;5014753;28;20640;-95
2021/07/13 14:46:09;;;;;;;1.10;0.60;;;19.60;99.90;;;;;;5009551;28;20718;-95
2021/07/13 14:48:38;;;;;;;1.10;0.80;;;19.50;99.90;;;;;;5012066;28;20627;-96
2021/07/13 14:51:06;;;;;;;1.77;0.80;;;19.40;99.90;;;;;;5011124;28;20638;-95
2021/07/13 14:53:34;;;;;;;0.80;0.73;;;19.30;99.90;;;;;;5005814;28;20677;-95